Pacific Titan — WCZ6844 — position and weather

sailwx.info

Track history (hours):
 
Tides and Currents Weather Stations Pressure Air Temp Water Temp Dewpoint Dewpoint Depression Visibility Wind Speed Wind Dir Waves Ship Positions

Pacific Titan

Owner: WESTERN TOWBOAT CO, SEATTLE, WA. More information available from US FCC via Universal Licensing System and Coast Guard Vessel Documentation Center.

Last reported at 2017-Jun-26 00:46 UTC. Time now 2017-Jun-26 12:20 UTC.
Position N 52°28' W 128°27'.

Type: Tow > 200 m length. MMSI: 338855000.

Date/timePositionNaut miles runAvg speedWind from/ knotsBaromVisibWave heightAir tempDewpointWater temp
2017-Jun-26 00:46N 52°28' W 128°27'5 9.3
2017-Jun-26 00:12N 52°23' W 128°31'3 8.9
2017-Jun-25 23:52N 52°21' W 128°32'18 7.4
2017-Jun-25 21:29N 52°10' W 128°08'4 8.8
2017-Jun-25 20:58N 52°06' W 128°07'7 9.1
2017-Jun-25 20:10N 52°04' W 127°56'2 9.3
2017-Jun-25 19:59N 52°02' W 127°55'5 9.7
2017-Jun-25 19:30N 51°57' W 127°56'5 9.9
2017-Jun-25 19:00N 51°53' W 127°57'5 9.5
2017-Jun-25 18:31N 51°48' W 127°57'5 9.1
2017-Jun-25 18:01N 51°43' W 127°56'4 9.0
2017-Jun-25 17:31N 51°39' W 127°54'4 7.9
2017-Jun-25 17:00N 51°35' W 127°53'5 8.9
2017-Jun-25 16:29N 51°30' W 127°52'4 8.4
2017-Jun-25 16:00N 51°26' W 127°52'4 8.7
2017-Jun-25 15:30N 51°22' W 127°53'4 8.7
2017-Jun-25 15:00N 51°18' W 127°53'4 8.7
2017-Jun-25 14:30N 51°14' W 127°52'9 8.9
2017-Jun-25 13:30N 51°06' W 127°45'510.3
2017-Jun-25 13:00N 51°03' W 127°38'510.0
2017-Jun-25 12:30N 50°59' W 127°33'510.5
2017-Jun-25 12:00N 50°56' W 127°26'510.5
2017-Jun-25 11:30N 50°52' W 127°20'5 9.9
2017-Jun-25 11:00N 50°49' W 127°14'5 9.6
2017-Jun-25 10:28N 50°46' W 127°08'5 9.6
2017-Jun-25 09:59N 50°44' W 127°02'6 9.1
2017-Jun-25 09:21N 50°41' W 126°53'4 8.6
2017-Jun-25 08:51N 50°38' W 126°48'4 9.7
2017-Jun-25 08:27N 50°36' W 126°44'4 7.9
2017-Jun-25 07:59N 50°32' W 126°41'510.2
2017-Jun-25 07:28N 50°30' W 126°34'610.2
2017-Jun-25 06:50N 50°30' W 126°24'3 9.7
2017-Jun-25 06:28N 50°29' W 126°18'5 9.9
2017-Jun-25 05:59N 50°29' W 126°11'1611.7
2017-Jun-25 04:37N 50°23' W 125°47'112.7
2017-Jun-25 04:30N 50°22' W 125°45'711.9
2017-Jun-25 03:54N 50°22' W 125°34'512.4
2017-Jun-25 03:30N 50°20' W 125°27'610.9
2017-Jun-25 02:59N 50°15' W 125°23'510.8
2017-Jun-25 02:30N 50°10' W 125°22'4 7.9
2017-Jun-25 02:00N 50°07' W 125°18'2 4.0
2017-Jun-25 01:30N 50°05' W 125°16'2 4.8
2017-Jun-25 01:00N 50°03' W 125°14'2 4.4
2017-Jun-25 00:30N 50°01' W 125°13'2 4.1
2017-Jun-25 00:00N 49°59' W 125°12'2 4.5
2017-Jun-24 23:30N 49°57' W 125°10'3 6.3
2017-Jun-24 23:00N 49°56' W 125°06'5 9.7
2017-Jun-24 22:30N 49°53' W 124°60'510.1
2017-Jun-24 22:00N 49°50' W 124°54'5 9.8
2017-Jun-24 21:30N 49°46' W 124°48'5 9.8
2017-Jun-24 21:00N 49°43' W 124°42'5 9.1
2017-Jun-24 20:29N 49°40' W 124°36'4 8.7
2017-Jun-24 20:00N 49°38' W 124°31'5 9.8
2017-Jun-24 19:30N 49°35' W 124°25'12 9.2
2017-Jun-24 18:11N 49°29' W 124°09'2 9.1
2017-Jun-24 18:00N 49°28' W 124°07'4 9.2
2017-Jun-24 17:30N 49°25' W 124°02'5 9.4
2017-Jun-24 17:00N 49°22' W 123°56'5 9.0
2017-Jun-24 16:30N 49°19' W 123°50'4 8.4
2017-Jun-24 16:00N 49°17' W 123°45'4 8.4
2017-Jun-24 15:29N 49°14' W 123°40'4 8.1
2017-Jun-24 15:00N 49°12' W 123°35'8 8.2
2017-Jun-24 14:00N 49°07' W 123°26'4 8.5
2017-Jun-24 13:29N 49°04' W 123°20'4 8.9
2017-Jun-24 13:00N 49°01' W 123°15'5 9.7
2017-Jun-24 12:30N 48°58' W 123°10'91179.0
2017-Jun-24 11:59N 47°33' W 122°21'0 0.0
2017-Jun-24 11:30N 47°33' W 122°21'78153.0
2017-Jun-24 10:59N 48°49' W 122°53'5 8.8
2017-Jun-24 10:28N 48°46' W 122°47'4 9.4
2017-Jun-24 10:00N 48°42' W 122°44'5 9.1
2017-Jun-24 09:30N 48°38' W 122°44'5 9.4
2017-Jun-24 09:01N 48°33' W 122°45'5 9.2
2017-Jun-24 08:30N 48°29' W 122°44'5 9.3
2017-Jun-24 08:00N 48°24' W 122°44'5 9.3
2017-Jun-24 07:27N 48°19' W 122°46'4 8.6
2017-Jun-24 06:59N 48°15' W 122°48'5 8.8
2017-Jun-24 06:28N 48°11' W 122°45'510.7
2017-Jun-24 05:59N 48°07' W 122°40'610.6
2017-Jun-24 05:25N 48°02' W 122°37'511.1
2017-Jun-24 05:00N 47°58' W 122°33'510.6
2017-Jun-24 04:30N 47°54' W 122°28'5 9.9
2017-Jun-24 04:00N 47°49' W 122°26'5 9.4
2017-Jun-24 03:30N 47°44' W 122°26'5 9.5
2017-Jun-24 03:00N 47°40' W 122°27'5 9.2
2017-Jun-24 02:30N 47°36' W 122°22'2 4.5
2017-Jun-24 02:00N 47°34' W 122°21'1 2.1
2017-Jun-24 01:30N 47°33' W 122°21'0 0.0
2017-Jun-24 01:00N 47°33' W 122°21'0 0.0
2017-Jun-24 00:30N 47°33' W 122°21'0 0.0
2017-Jun-24 00:00N 47°33' W 122°21'0 0.0
2017-Jun-23 23:31N 47°33' W 122°21'0 0.0
2017-Jun-23 23:01N 47°33' W 122°21'0 0.3
2017-Jun-23 22:30N 47°33' W 122°21'4 7.9
2017-Jun-23 22:00N 47°37' W 122°24'4 8.0
2017-Jun-23 21:30N 47°41' W 122°25'1 1.8
2017-Jun-23 21:00N 47°40' W 122°24'1 2.9
2017-Jun-23 20:30N 47°39' W 122°22'0 0.0
2017-Jun-23 20:01N 47°39' W 122°22'0 0.0
2017-Jun-23 19:30N 47°39' W 122°22'  
2017-Jun-20 00:53N 47°39' W 122°22'1 3.7
2017-Jun-20 00:31N 47°40' W 122°24'2 4.0
2017-Jun-20 00:01N 47°39' W 122°26'611.1
2017-Jun-19 23:30N 47°35' W 122°22'2 3.7
2017-Jun-19 23:01N 47°33' W 122°20'2 3.2
2017-Jun-19 22:30N 47°34' W 122°21'2 4.8
2017-Jun-19 22:01N 47°36' W 122°23'5 9.9
2017-Jun-19 21:31N 47°40' W 122°28'510.7
2017-Jun-19 21:00N 47°45' W 122°27'511.0
2017-Jun-19 20:31N 47°51' W 122°28'510.5
2017-Jun-19 20:01N 47°56' W 122°31'1310.9
2017-Jun-19 18:48N 48°07' W 122°41'412.1
2017-Jun-19 18:30N 48°10' W 122°45'611.3
2017-Jun-19 18:00N 48°15' W 122°48'510.7
2017-Jun-19 17:29N 48°20' W 122°46'510.7
2017-Jun-19 17:00N 48°25' W 122°44'510.6
2017-Jun-19 16:30N 48°30' W 122°45'510.7
2017-Jun-19 16:01N 48°36' W 122°45'611.1
2017-Jun-19 15:29N 48°41' W 122°44'510.7
2017-Jun-19 15:01N 48°45' W 122°49'510.5
2017-Jun-19 14:30N 48°48' W 122°56'1110.8
2017-Jun-19 13:31N 48°55' W 123°09'611.1
2017-Jun-19 13:00N 48°58' W 123°15'611.2
2017-Jun-19 12:30N 49°02' W 123°22'510.7
2017-Jun-19 12:01N 49°06' W 123°27'510.3
2017-Jun-19 11:30N 49°10' W 123°33'34 9.8
2017-Jun-19 08:02N 49°26' W 124°19'4 8.8
2017-Jun-19 07:36N 49°27' W 124°24'1 8.7
2017-Jun-19 07:26N 49°28' W 124°26'4 8.5
2017-Jun-19 07:00N 49°30' W 124°30'4 8.4
2017-Jun-19 06:30N 49°34' W 124°34'5 9.3
2017-Jun-19 06:00N 49°38' W 124°38'510.2
2017-Jun-19 05:30N 49°42' W 124°43'5 9.2
2017-Jun-19 05:00N 49°45' W 124°48'510.0
2017-Jun-19 04:30N 49°48' W 124°54'510.1
2017-Jun-19 04:00N 49°51' W 125°00'5 9.5
2017-Jun-19 03:30N 49°55' W 125°05'5 9.7
2017-Jun-19 03:00N 49°58' W 125°11'510.5
2017-Jun-19 02:30N 50°03' W 125°14'5 9.3
2017-Jun-19 02:00N 50°07' W 125°18'4 8.0
2017-Jun-19 01:30N 50°10' W 125°21'4 8.9
2017-Jun-19 01:00N 50°14' W 125°23'4 8.7
2017-Jun-19 00:30N 50°18' W 125°25'5 7.3
2017-Jun-18 23:47N 50°21' W 125°32'3 7.4
2017-Jun-18 23:25N 50°22' W 125°36'96 8.2
2017-Jun-18 11:45N 51°08' W 127°49'3 9.0
2017-Jun-18 11:28N 51°10' W 127°51'5 9.7
2017-Jun-18 11:00N 51°14' W 127°52'13 9.5
2017-Jun-18 09:37N 51°25' W 128°04'1 9.8
2017-Jun-18 09:30N 51°26' W 128°06'5 9.7
2017-Jun-18 09:01N 51°29' W 128°12'5 9.7
2017-Jun-18 08:31N 51°33' W 128°16'510.0
2017-Jun-18 08:01N 51°37' W 128°20'5 9.9
2017-Jun-18 07:30N 51°41' W 128°25'510.0
2017-Jun-18 07:00N 51°45' W 128°29'510.2
2017-Jun-18 06:31N 51°50' W 128°33'510.0
2017-Jun-18 06:00N 51°54' W 128°36'510.1
2017-Jun-18 05:30N 51°59' W 128°38'5 9.9
2017-Jun-18 05:00N 52°04' W 128°41'  
Track history (hours):
 
Tides and Currents Weather Stations Pressure Air Temp Water Temp Dewpoint Dewpoint Depression Visibility Wind Speed Wind Dir Waves Ship Positions

Pacific Titan

Owner: WESTERN TOWBOAT CO, SEATTLE, WA. More information available from US FCC via Universal Licensing System and Coast Guard Vessel Documentation Center.

Last reported at 2017-Jun-26 00:46 UTC. Time now 2017-Jun-26 12:20 UTC.
Position N 52°28' W 128°27'.

Type: Tow > 200 m length. MMSI: 338855000.

Date/timePositionNaut miles runAvg speedWind from/ knotsBaromVisibWave heightAir tempDewpointWater temp
2017-Jun-26 00:46N 52°28' W 128°27'5 9.3
2017-Jun-26 00:12N 52°23' W 128°31'3 8.9
2017-Jun-25 23:52N 52°21' W 128°32'18 7.4
2017-Jun-25 21:29N 52°10' W 128°08'4 8.8
2017-Jun-25 20:58N 52°06' W 128°07'7 9.1
2017-Jun-25 20:10N 52°04' W 127°56'2 9.3
2017-Jun-25 19:59N 52°02' W 127°55'5 9.7
2017-Jun-25 19:30N 51°57' W 127°56'5 9.9
2017-Jun-25 19:00N 51°53' W 127°57'5 9.5
2017-Jun-25 18:31N 51°48' W 127°57'5 9.1
2017-Jun-25 18:01N 51°43' W 127°56'4 9.0
2017-Jun-25 17:31N 51°39' W 127°54'4 7.9
2017-Jun-25 17:00N 51°35' W 127°53'5 8.9
2017-Jun-25 16:29N 51°30' W 127°52'4 8.4
2017-Jun-25 16:00N 51°26' W 127°52'4 8.7
2017-Jun-25 15:30N 51°22' W 127°53'4 8.7
2017-Jun-25 15:00N 51°18' W 127°53'4 8.7
2017-Jun-25 14:30N 51°14' W 127°52'9 8.9
2017-Jun-25 13:30N 51°06' W 127°45'510.3
2017-Jun-25 13:00N 51°03' W 127°38'510.0
2017-Jun-25 12:30N 50°59' W 127°33'510.5
2017-Jun-25 12:00N 50°56' W 127°26'510.5
2017-Jun-25 11:30N 50°52' W 127°20'5 9.9
2017-Jun-25 11:00N 50°49' W 127°14'5 9.6
2017-Jun-25 10:28N 50°46' W 127°08'5 9.6
2017-Jun-25 09:59N 50°44' W 127°02'6 9.1
2017-Jun-25 09:21N 50°41' W 126°53'4 8.6
2017-Jun-25 08:51N 50°38' W 126°48'4 9.7
2017-Jun-25 08:27N 50°36' W 126°44'4 7.9
2017-Jun-25 07:59N 50°32' W 126°41'510.2
2017-Jun-25 07:28N 50°30' W 126°34'610.2
2017-Jun-25 06:50N 50°30' W 126°24'3 9.7
2017-Jun-25 06:28N 50°29' W 126°18'5 9.9
2017-Jun-25 05:59N 50°29' W 126°11'1611.7
2017-Jun-25 04:37N 50°23' W 125°47'112.7
2017-Jun-25 04:30N 50°22' W 125°45'711.9
2017-Jun-25 03:54N 50°22' W 125°34'512.4
2017-Jun-25 03:30N 50°20' W 125°27'610.9
2017-Jun-25 02:59N 50°15' W 125°23'510.8
2017-Jun-25 02:30N 50°10' W 125°22'4 7.9
2017-Jun-25 02:00N 50°07' W 125°18'2 4.0
2017-Jun-25 01:30N 50°05' W 125°16'2 4.8
2017-Jun-25 01:00N 50°03' W 125°14'2 4.4
2017-Jun-25 00:30N 50°01' W 125°13'2 4.1
2017-Jun-25 00:00N 49°59' W 125°12'2 4.5
2017-Jun-24 23:30N 49°57' W 125°10'3 6.3
2017-Jun-24 23:00N 49°56' W 125°06'5 9.7
2017-Jun-24 22:30N 49°53' W 124°60'510.1
2017-Jun-24 22:00N 49°50' W 124°54'5 9.8
2017-Jun-24 21:30N 49°46' W 124°48'5 9.8
2017-Jun-24 21:00N 49°43' W 124°42'5 9.1
2017-Jun-24 20:29N 49°40' W 124°36'4 8.7
2017-Jun-24 20:00N 49°38' W 124°31'5 9.8
2017-Jun-24 19:30N 49°35' W 124°25'12 9.2
2017-Jun-24 18:11N 49°29' W 124°09'2 9.1
2017-Jun-24 18:00N 49°28' W 124°07'4 9.2
2017-Jun-24 17:30N 49°25' W 124°02'5 9.4
2017-Jun-24 17:00N 49°22' W 123°56'5 9.0
2017-Jun-24 16:30N 49°19' W 123°50'4 8.4
2017-Jun-24 16:00N 49°17' W 123°45'4 8.4
2017-Jun-24 15:29N 49°14' W 123°40'4 8.1
2017-Jun-24 15:00N 49°12' W 123°35'8 8.2
2017-Jun-24 14:00N 49°07' W 123°26'4 8.5
2017-Jun-24 13:29N 49°04' W 123°20'4 8.9
2017-Jun-24 13:00N 49°01' W 123°15'5 9.7
2017-Jun-24 12:30N 48°58' W 123°10'91179.0
2017-Jun-24 11:59N 47°33' W 122°21'0 0.0
2017-Jun-24 11:30N 47°33' W 122°21'78153.0
2017-Jun-24 10:59N 48°49' W 122°53'5 8.8
2017-Jun-24 10:28N 48°46' W 122°47'4 9.4
2017-Jun-24 10:00N 48°42' W 122°44'5 9.1
2017-Jun-24 09:30N 48°38' W 122°44'5 9.4
2017-Jun-24 09:01N 48°33' W 122°45'5 9.2
2017-Jun-24 08:30N 48°29' W 122°44'5 9.3
2017-Jun-24 08:00N 48°24' W 122°44'5 9.3
2017-Jun-24 07:27N 48°19' W 122°46'4 8.6
2017-Jun-24 06:59N 48°15' W 122°48'5 8.8
2017-Jun-24 06:28N 48°11' W 122°45'510.7
2017-Jun-24 05:59N 48°07' W 122°40'610.6
2017-Jun-24 05:25N 48°02' W 122°37'511.1
2017-Jun-24 05:00N 47°58' W 122°33'510.6
2017-Jun-24 04:30N 47°54' W 122°28'5 9.9
2017-Jun-24 04:00N 47°49' W 122°26'5 9.4
2017-Jun-24 03:30N 47°44' W 122°26'5 9.5
2017-Jun-24 03:00N 47°40' W 122°27'5 9.2
2017-Jun-24 02:30N 47°36' W 122°22'2 4.5
2017-Jun-24 02:00N 47°34' W 122°21'1 2.1
2017-Jun-24 01:30N 47°33' W 122°21'0 0.0
2017-Jun-24 01:00N 47°33' W 122°21'0 0.0
2017-Jun-24 00:30N 47°33' W 122°21'0 0.0
2017-Jun-24 00:00N 47°33' W 122°21'0 0.0
2017-Jun-23 23:31N 47°33' W 122°21'0 0.0
2017-Jun-23 23:01N 47°33' W 122°21'0 0.3
2017-Jun-23 22:30N 47°33' W 122°21'4 7.9
2017-Jun-23 22:00N 47°37' W 122°24'4 8.0
2017-Jun-23 21:30N 47°41' W 122°25'1 1.8
2017-Jun-23 21:00N 47°40' W 122°24'1 2.9
2017-Jun-23 20:30N 47°39' W 122°22'0 0.0
2017-Jun-23 20:01N 47°39' W 122°22'0 0.0
2017-Jun-23 19:30N 47°39' W 122°22'  
2017-Jun-20 00:53N 47°39' W 122°22'1 3.7
2017-Jun-20 00:31N 47°40' W 122°24'2 4.0
2017-Jun-20 00:01N 47°39' W 122°26'611.1
2017-Jun-19 23:30N 47°35' W 122°22'2 3.7
2017-Jun-19 23:01N 47°33' W 122°20'2 3.2
2017-Jun-19 22:30N 47°34' W 122°21'2 4.8
2017-Jun-19 22:01N 47°36' W 122°23'5 9.9
2017-Jun-19 21:31N 47°40' W 122°28'510.7
2017-Jun-19 21:00N 47°45' W 122°27'511.0
2017-Jun-19 20:31N 47°51' W 122°28'510.5
2017-Jun-19 20:01N 47°56' W 122°31'1310.9
2017-Jun-19 18:48N 48°07' W 122°41'412.1
2017-Jun-19 18:30N 48°10' W 122°45'611.3
2017-Jun-19 18:00N 48°15' W 122°48'510.7
2017-Jun-19 17:29N 48°20' W 122°46'510.7
2017-Jun-19 17:00N 48°25' W 122°44'510.6
2017-Jun-19 16:30N 48°30' W 122°45'510.7
2017-Jun-19 16:01N 48°36' W 122°45'611.1
2017-Jun-19 15:29N 48°41' W 122°44'510.7
2017-Jun-19 15:01N 48°45' W 122°49'510.5
2017-Jun-19 14:30N 48°48' W 122°56'1110.8
2017-Jun-19 13:31N 48°55' W 123°09'611.1
2017-Jun-19 13:00N 48°58' W 123°15'611.2
2017-Jun-19 12:30N 49°02' W 123°22'510.7
2017-Jun-19 12:01N 49°06' W 123°27'510.3
2017-Jun-19 11:30N 49°10' W 123°33'34 9.8
2017-Jun-19 08:02N 49°26' W 124°19'4 8.8
2017-Jun-19 07:36N 49°27' W 124°24'1 8.7
2017-Jun-19 07:26N 49°28' W 124°26'4 8.5
2017-Jun-19 07:00N 49°30' W 124°30'4 8.4
2017-Jun-19 06:30N 49°34' W 124°34'5 9.3
2017-Jun-19 06:00N 49°38' W 124°38'510.2
2017-Jun-19 05:30N 49°42' W 124°43'5 9.2
2017-Jun-19 05:00N 49°45' W 124°48'510.0
2017-Jun-19 04:30N 49°48' W 124°54'510.1
2017-Jun-19 04:00N 49°51' W 125°00'5 9.5
2017-Jun-19 03:30N 49°55' W 125°05'5 9.7
2017-Jun-19 03:00N 49°58' W 125°11'510.5
2017-Jun-19 02:30N 50°03' W 125°14'5 9.3
2017-Jun-19 02:00N 50°07' W 125°18'4 8.0
2017-Jun-19 01:30N 50°10' W 125°21'4 8.9
2017-Jun-19 01:00N 50°14' W 125°23'4 8.7
2017-Jun-19 00:30N 50°18' W 125°25'5 7.3
2017-Jun-18 23:47N 50°21' W 125°32'3 7.4
2017-Jun-18 23:25N 50°22' W 125°36'96 8.2
2017-Jun-18 11:45N 51°08' W 127°49'3 9.0
2017-Jun-18 11:28N 51°10' W 127°51'5 9.7
2017-Jun-18 11:00N 51°14' W 127°52'13 9.5
2017-Jun-18 09:37N 51°25' W 128°04'1 9.8
2017-Jun-18 09:30N 51°26' W 128°06'5 9.7
2017-Jun-18 09:01N 51°29' W 128°12'5 9.7
2017-Jun-18 08:31N 51°33' W 128°16'510.0
2017-Jun-18 08:01N 51°37' W 128°20'5 9.9
2017-Jun-18 07:30N 51°41' W 128°25'510.0
2017-Jun-18 07:00N 51°45' W 128°29'510.2
2017-Jun-18 06:31N 51°50' W 128°33'510.0
2017-Jun-18 06:00N 51°54' W 128°36'510.1
2017-Jun-18 05:30N 51°59' W 128°38'5 9.9
2017-Jun-18 05:00N 52°04' W 128°41'  

Dump ship's entire track history